Adak Island, Alaska
Current Conditions -  °F | °C
As of 3:16 AM on Tuesday 21 Oct 2014 (Local Time) from PADK Reporting Station
Broken Clouds Broken Clouds  
Wind Chill: 35°   Ceiling: 3500
Heat Index: 43°   Visibility: 10mi
Dew Point: 30°   Wind: 16mph
Humidity: 61%   Direction: 290°WNW
Pressure: 30.09"   Gusts: 25mph
Location:  51.88°N, 176.65°W
Report Text: PADK 211216Z AUTO 29014G22KT 10SM FEW024 SCT028 BKN035 06/M01 A3009 RMK AO1
Loading
Personal Weather Stations






























Interactive Weather Map New forecast layout! Learn more

10-Day Weather Forecast

Advertisements
Track Severe Weather on mobile